Portada
METAR-TAF:

METAR-TAF

Aeropuertos :

Aeropuerto de Yellowknife

Yellowknife, Territorios del Noroeste, Canadá

latitud: 62-28N, longitud: 114-27W, altitud: 205 m

Observación

El informe se hizo hace 49 minutos, a las 06:00 UTC
Viento 8 kt del este
Temperatura 3°C
Humedad 70%
Presión 1011 hPa
Visibilidad: 24.1 km
Escasas nubes a una altura de 8000 ft

METAR: CYZF 260600Z 08008KT 15SM FEW080 03/M02 A2986 RMK AC1 AC TR SLP126

Hora: 00:49 (06:49 UTC)

Pronóstico

El informe se hizo hace 1 hora y 11 minutos, a las 05:38 UTC
Pronóstico válido del 26 a las 06 UTC al 27 a las 06 UTC
Viento 10 kt del este
Visibilidad: 10 km
Escasas nubes a una altura de 8000 ft

TAF: CYZF 260538Z 2606/2706 08010KT P6SM FEW080 RMK NXT FCST BY 261200Z

Observaciones y pronósticos meteorológicos de más de 4000 aeropuertos (mensajes METAR y TAF).

Los puntos amarillos y rojos representan las estaciones disponibles.

Ponga el ratón en el punto deseado para ver el nombre de la estación.

Haga clic para ver las observaciones y los pronósticos meteorológicos.

Para cambiar el mapa : haga clic en los botones verdes con una cruz de color negro para hacer un zoom, en el botón verde con un guión para alejar o en las flechas verdes para mapas adyacentes.


METAR-TAF: